createdAt,value
2018-11-10T00:00:51.990Z,41.40
2018-11-10T00:05:49.387Z,43.70
2018-11-10T00:10:46.759Z,43.13
2018-11-10T00:15:46.871Z,39.40
2018-11-10T00:20:44.271Z,41.97
2018-11-10T00:25:41.667Z,42.80
2018-11-10T00:30:39.099Z,44.63
2018-11-10T00:35:36.500Z,49.17
2018-11-10T00:40:34.006Z,57.33
2018-11-10T00:45:31.425Z,40.63
2018-11-10T00:50:28.829Z,42.53
2018-11-10T00:55:26.212Z,39.67
2018-11-10T01:00:23.606Z,40.50
2018-11-10T01:05:21.008Z,49.30
2018-11-10T01:10:18.450Z,41.60
2018-11-10T01:15:16.252Z,40.03
2018-11-10T01:20:14.141Z,43.13
2018-11-10T01:25:11.719Z,38.00
2018-11-10T01:30:11.751Z,39.90
2018-11-10T01:35:09.186Z,39.30
2018-11-10T01:40:08.438Z,34.57
2018-11-10T01:45:08.254Z,36.87
2018-11-10T01:50:06.650Z,30.50
2018-11-10T01:55:04.696Z,37.90
2018-11-10T02:00:02.119Z,39.60
2018-11-10T02:04:59.513Z,35.87
2018-11-10T02:09:56.991Z,37.83
2018-11-10T02:14:54.385Z,28.83
2018-11-10T02:19:51.800Z,34.27
2018-11-10T02:24:49.242Z,32.60
2018-11-10T02:29:46.630Z,33.10
2018-11-10T02:34:44.035Z,33.27
2018-11-10T02:39:41.503Z,36.83
2018-11-10T02:44:38.905Z,37.87
2018-11-10T02:49:36.409Z,34.57
2018-11-10T02:54:33.795Z,29.00
2018-11-10T02:59:31.179Z,28.03
2018-11-10T03:04:28.550Z,32.43
2018-11-10T03:09:25.971Z,31.30
2018-11-10T03:14:23.335Z,26.87
2018-11-10T03:19:20.719Z,25.77
2018-11-10T03:24:18.130Z,28.83
2018-11-10T03:29:15.500Z,24.87
2018-11-10T03:34:13.658Z,22.83
2018-11-10T03:39:12.162Z,30.00
2018-11-10T03:44:09.911Z,27.10
2018-11-10T03:49:07.305Z,31.33
2018-11-10T03:54:05.566Z,31.23
2018-11-10T03:59:03.143Z,30.00
2018-11-10T04:04:00.515Z,26.93
2018-11-10T04:08:57.887Z,31.80
2018-11-10T04:13:55.254Z,28.33
2018-11-10T04:18:52.657Z,31.33
2018-11-10T04:23:50.059Z,28.73
2018-11-10T04:28:47.434Z,29.10
2018-11-10T04:33:44.863Z,37.67
2018-11-10T04:38:42.257Z,33.93
2018-11-10T04:43:39.638Z,30.13
2018-11-10T04:48:36.994Z,27.07
2018-11-10T04:53:34.442Z,31.43
2018-11-10T04:58:31.840Z,28.00
2018-11-10T05:03:29.242Z,26.50
2018-11-10T05:08:26.626Z,28.30
2018-11-10T05:13:24.004Z,39.87
2018-11-10T05:18:21.395Z,29.97
2018-11-10T05:23:18.763Z,29.60
2018-11-10T05:28:16.138Z,27.33
2018-11-10T05:33:13.514Z,24.60
2018-11-10T05:38:10.890Z,31.37
2018-11-10T05:43:08.252Z,29.67
2018-11-10T05:48:06.046Z,31.17
2018-11-10T05:53:03.459Z,32.07
2018-11-10T05:58:00.830Z,29.30
2018-11-10T06:02:58.235Z,28.77
2018-11-10T06:07:55.627Z,25.90
2018-11-10T06:12:53.068Z,30.73
2018-11-10T06:17:50.438Z,28.60
2018-11-10T06:22:47.839Z,26.47
2018-11-10T06:27:45.338Z,36.23
2018-11-10T06:32:42.839Z,26.27
2018-11-10T06:37:40.909Z,30.80
2018-11-10T06:42:38.652Z,23.00
2018-11-10T06:47:36.474Z,22.57
2018-11-10T06:52:34.630Z,27.23
2018-11-10T06:57:32.017Z,21.63
2018-11-10T07:02:29.438Z,21.03
2018-11-10T07:07:26.923Z,24.23
2018-11-10T07:12:24.694Z,24.80
2018-11-10T07:17:22.155Z,22.80
2018-11-10T07:22:19.585Z,21.13
2018-11-10T07:27:16.987Z,24.93
2018-11-10T07:32:14.403Z,27.70
2018-11-10T07:37:11.851Z,27.70
2018-11-10T07:42:09.308Z,22.40
2018-11-10T07:47:06.761Z,23.00
2018-11-10T07:52:04.371Z,24.60
2018-11-10T07:57:01.771Z,22.03
2018-11-10T08:01:59.185Z,19.27
2018-11-10T08:06:56.567Z,20.13
2018-11-10T08:11:54.026Z,18.43
2018-11-10T08:16:52.545Z,17.93
2018-11-10T08:21:50.307Z,19.03
2018-11-10T08:26:47.717Z,19.30
2018-11-10T08:31:45.127Z,15.47
2018-11-10T08:36:42.551Z,13.67
2018-11-10T08:41:40.063Z,13.77
2018-11-10T08:46:38.488Z,15.17
2018-11-10T08:51:35.987Z,18.80
2018-11-10T08:56:33.483Z,14.33
2018-11-10T09:01:31.971Z,14.47
2018-11-10T09:06:29.368Z,15.60
2018-11-10T09:11:26.947Z,19.77
2018-11-10T09:16:27.870Z,20.20
2018-11-10T09:21:25.558Z,21.30
2018-11-10T09:26:22.870Z,25.07
2018-11-10T09:31:20.286Z,27.23
2018-11-10T09:36:17.741Z,24.90
2018-11-10T09:41:15.183Z,23.57
2018-11-10T09:46:21.756Z,33.40
2018-11-10T09:51:19.240Z,30.30
2018-11-10T09:56:16.669Z,29.30
2018-11-10T10:01:14.336Z,26.60
2018-11-10T10:06:11.631Z,34.10
2018-11-10T10:11:09.155Z,21.80
2018-11-10T10:16:16.475Z,31.80
2018-11-10T10:21:14.039Z,29.10
2018-11-10T10:26:11.422Z,27.47
2018-11-10T10:31:09.736Z,27.73
2018-11-10T10:36:07.214Z,31.67
2018-11-10T10:41:04.912Z,33.13
2018-11-10T10:46:08.926Z,33.00
2018-11-10T10:51:06.623Z,46.70
2018-11-10T10:56:04.188Z,36.40
2018-11-10T11:01:07.356Z,40.80
2018-11-10T11:06:04.899Z,38.70
2018-11-10T11:11:02.368Z,34.87
2018-11-10T11:16:18.645Z,38.80
2018-11-10T11:21:16.163Z,34.47
2018-11-10T11:26:13.598Z,33.43
2018-11-10T11:31:11.174Z,32.80
2018-11-10T11:36:08.559Z,32.20
2018-11-10T11:41:06.184Z,34.63
2018-11-10T11:51:12.533Z,34.03
2018-11-10T11:56:09.961Z,40.00
2018-11-10T12:01:07.363Z,30.00
2018-11-10T12:06:04.885Z,37.40
2018-11-10T12:11:02.302Z,27.87
2018-11-10T12:16:10.418Z,38.13
2018-11-10T12:21:08.014Z,32.50
2018-11-10T12:26:06.586Z,30.93
2018-11-10T12:31:04.616Z,35.03
2018-11-10T12:36:02.059Z,27.77
2018-11-10T12:40:59.490Z,31.70
2018-11-10T12:46:06.590Z,29.00
2018-11-10T12:51:04.641Z,33.40
2018-11-10T12:56:02.052Z,30.27
2018-11-10T13:00:59.771Z,28.73
2018-11-10T13:05:57.211Z,31.97
2018-11-10T13:10:54.790Z,39.97
2018-11-10T13:15:52.144Z,33.43
2018-11-10T13:20:49.763Z,30.30
2018-11-10T13:25:47.295Z,23.67
2018-11-10T13:30:47.553Z,29.67
2018-11-10T13:35:45.184Z,35.57
2018-11-10T13:40:42.611Z,25.83
2018-11-10T13:45:44.782Z,29.13
2018-11-10T13:50:43.024Z,30.83
2018-11-10T13:55:40.479Z,29.87
2018-11-10T14:00:39.380Z,27.63
2018-11-10T14:05:38.449Z,23.63
2018-11-10T14:10:35.898Z,25.23
2018-11-10T14:15:33.370Z,23.33
2018-11-10T14:20:30.831Z,21.87
2018-11-10T14:25:28.226Z,26.23
2018-11-10T14:30:25.636Z,24.87
2018-11-10T14:35:23.016Z,23.73
2018-11-10T14:40:20.499Z,23.47
2018-11-10T14:45:18.850Z,20.90
2018-11-10T14:50:17.061Z,23.67
2018-11-10T14:55:14.818Z,24.67
2018-11-10T15:00:14.365Z,26.50
2018-11-10T15:05:12.622Z,26.20
2018-11-10T15:10:11.766Z,26.17
2018-11-10T15:15:10.695Z,29.63
2018-11-10T15:20:09.702Z,30.00
2018-11-10T15:25:08.800Z,35.47
2018-11-10T15:30:08.727Z,31.13
2018-11-10T15:35:08.157Z,30.57
2018-11-10T15:40:06.887Z,32.07
2018-11-10T15:45:04.757Z,34.67
2018-11-10T15:50:02.159Z,33.70
2018-11-10T15:54:59.801Z,32.00
2018-11-10T15:59:57.215Z,36.30
2018-11-10T16:04:54.607Z,34.80
2018-11-10T16:09:51.983Z,35.77
2018-11-10T16:14:49.374Z,39.73
2018-11-10T16:19:46.774Z,30.63
2018-11-10T16:24:44.207Z,29.33
2018-11-10T16:29:43.602Z,33.83
2018-11-10T16:34:41.183Z,35.80
2018-11-10T16:39:40.868Z,31.93
2018-11-10T16:44:45.564Z,26.37
2018-11-10T16:49:43.111Z,34.10
2018-11-10T16:54:41.495Z,35.20
2018-11-10T16:59:38.959Z,33.17
2018-11-10T17:04:36.510Z,29.33
2018-11-10T17:09:33.926Z,22.63
2018-11-10T17:14:31.422Z,25.20
2018-11-10T17:19:29.999Z,23.87
2018-11-10T17:24:27.447Z,30.03
2018-11-10T17:29:26.231Z,22.80
2018-11-10T17:34:23.747Z,27.03
2018-11-10T17:39:21.262Z,25.17
2018-11-10T17:44:18.563Z,23.03
2018-11-10T17:49:15.949Z,19.30
2018-11-10T17:54:13.343Z,23.20
2018-11-10T17:59:10.711Z,25.57
2018-11-10T18:04:08.130Z,24.00
2018-11-10T18:09:07.427Z,19.07
2018-11-10T18:14:05.081Z,19.27
2018-11-10T18:19:04.311Z,18.40
2018-11-10T18:24:01.728Z,18.13
2018-11-10T18:28:59.113Z,19.63
2018-11-10T18:33:56.563Z,18.13
2018-11-10T18:38:54.037Z,15.70
2018-11-10T18:43:51.439Z,14.57
2018-11-10T18:48:48.878Z,15.27
2018-11-10T18:53:46.246Z,14.10
2018-11-10T18:58:43.734Z,12.40
2018-11-10T19:03:41.105Z,14.70
2018-11-10T19:08:38.474Z,14.53
2018-11-10T19:13:35.886Z,13.07
2018-11-10T19:18:33.271Z,15.17
2018-11-10T19:23:30.657Z,15.50
2018-11-10T19:28:28.119Z,15.30
2018-11-10T19:33:25.507Z,13.23
2018-11-10T19:38:22.912Z,24.10
2018-11-10T19:43:21.935Z,19.27
2018-11-10T19:48:21.025Z,17.23
2018-11-10T19:53:18.479Z,16.00
2018-11-10T19:58:15.925Z,20.90
2018-11-10T20:03:13.314Z,17.53
2018-11-10T20:08:10.694Z,15.50
2018-11-10T20:13:08.216Z,17.33
2018-11-10T20:18:05.760Z,15.57
2018-11-10T20:23:03.159Z,11.07
2018-11-10T20:28:00.647Z,16.97
2018-11-10T20:32:58.188Z,12.97
2018-11-10T20:37:55.508Z,15.70
2018-11-10T20:42:52.903Z,13.77
2018-11-10T20:47:50.290Z,11.60
2018-11-10T20:52:47.703Z,13.67
2018-11-10T20:57:45.118Z,17.03
2018-11-10T21:02:43.099Z,16.93
2018-11-10T21:07:40.481Z,17.33
2018-11-10T21:12:37.941Z,17.60
2018-11-10T21:17:35.506Z,14.97
2018-11-10T21:22:32.923Z,13.90
2018-11-10T21:27:30.310Z,19.30
2018-11-10T21:32:27.767Z,19.53
2018-11-10T21:37:25.159Z,19.50
2018-11-10T21:42:22.602Z,18.80
2018-11-10T21:47:20.038Z,19.77
2018-11-10T21:52:17.437Z,20.90
2018-11-10T21:57:14.928Z,17.60
2018-11-10T22:02:12.492Z,20.43
2018-11-10T22:07:10.989Z,16.50
2018-11-10T22:12:08.488Z,14.60
2018-11-10T22:17:05.950Z,11.83
2018-11-10T22:22:03.842Z,12.87
2018-11-10T22:27:01.327Z,17.43
2018-11-10T22:31:58.774Z,12.50
2018-11-10T22:36:56.301Z,12.60
2018-11-10T22:41:56.570Z,9.53
2018-11-10T22:47:02.340Z,8.63
2018-11-10T22:52:02.629Z,8.63
2018-11-10T22:57:01.655Z,7.87
2018-11-10T23:02:02.844Z,7.60
2018-11-10T23:07:00.281Z,7.30
2018-11-10T23:11:57.677Z,10.80
2018-11-10T23:16:59.062Z,10.17
2018-11-10T23:22:00.740Z,7.30
2018-11-10T23:27:01.964Z,8.57
2018-11-10T23:32:00.682Z,10.90
2018-11-10T23:36:58.144Z,8.83
2018-11-10T23:41:55.547Z,13.40
2018-11-10T23:46:54.323Z,5.80
2018-11-10T23:51:51.703Z,7.83
2018-11-10T23:56:49.104Z,5.93
